createdAt,value
2022-07-30T00:01:15.659Z,26.37
2022-07-30T00:03:42.224Z,26.28
2022-07-30T00:06:08.789Z,26.23
2022-07-30T00:08:35.302Z,26.68
2022-07-30T00:11:01.830Z,26.24
2022-07-30T00:13:28.506Z,26.56
2022-07-30T00:15:55.067Z,26.34
2022-07-30T00:18:21.817Z,25.94
2022-07-30T00:20:49.372Z,25.91
2022-07-30T00:23:17.243Z,25.70
2022-07-30T00:25:44.347Z,25.86
2022-07-30T00:28:11.081Z,25.56
2022-07-30T00:30:38.846Z,25.71
2022-07-30T00:33:05.572Z,26.02
2022-07-30T00:35:34.907Z,25.81
2022-07-30T00:38:01.564Z,25.69
2022-07-30T00:40:28.586Z,25.85
2022-07-30T00:42:55.179Z,26.05
2022-07-30T00:45:21.989Z,25.99
2022-07-30T00:47:48.564Z,25.88
2022-07-30T00:50:15.632Z,25.88
2022-07-30T00:52:43.138Z,25.77
2022-07-30T00:55:12.952Z,25.72
2022-07-30T00:57:39.992Z,26.15
2022-07-30T01:00:10.333Z,25.65
2022-07-30T01:02:37.017Z,25.38
2022-07-30T01:05:04.210Z,25.77
2022-07-30T01:07:30.783Z,25.65
2022-07-30T01:09:57.343Z,25.52
2022-07-30T01:12:27.253Z,25.32
2022-07-30T01:14:56.902Z,25.64
2022-07-30T01:17:23.637Z,25.82
2022-07-30T01:19:52.552Z,26.33
2022-07-30T01:22:31.155Z,26.11
2022-07-30T01:25:03.533Z,26.05
2022-07-30T01:27:43.098Z,26.45
2022-07-30T01:30:11.306Z,26.01
2022-07-30T01:32:42.960Z,26.01
2022-07-30T01:35:10.956Z,25.88
2022-07-30T01:37:38.972Z,25.93
2022-07-30T01:40:06.576Z,25.89
2022-07-30T01:42:35.084Z,25.72
2022-07-30T01:45:03.115Z,25.94
2022-07-30T01:47:31.941Z,25.68
2022-07-30T01:49:59.995Z,25.97
2022-07-30T01:52:30.957Z,25.87
2022-07-30T01:55:00.444Z,25.80
2022-07-30T01:57:27.152Z,25.60
2022-07-30T01:59:59.173Z,25.44
2022-07-30T02:02:25.752Z,25.82
2022-07-30T02:04:52.423Z,25.48
2022-07-30T02:07:31.434Z,25.28
2022-07-30T02:10:11.488Z,25.20
2022-07-30T02:12:43.452Z,25.14
2022-07-30T02:15:45.422Z,25.30
2022-07-30T02:18:23.840Z,25.22
2022-07-30T02:21:19.465Z,25.44
2022-07-30T02:23:48.793Z,25.52
2022-07-30T02:26:21.015Z,25.49
2022-07-30T02:28:51.930Z,25.77
2022-07-30T02:31:22.741Z,25.71
2022-07-30T02:33:53.473Z,25.65
2022-07-30T02:36:20.251Z,25.56
2022-07-30T02:38:50.710Z,25.32
2022-07-30T02:41:20.544Z,25.45
2022-07-30T02:43:48.875Z,25.72
2022-07-30T02:46:18.362Z,25.79
2022-07-30T02:48:47.268Z,26.09
2022-07-30T02:51:17.526Z,26.05
2022-07-30T02:53:46.364Z,25.89
2022-07-30T02:56:15.976Z,25.98
2022-07-30T02:58:44.751Z,25.77
2022-07-30T03:01:13.455Z,25.84
2022-07-30T03:03:43.004Z,25.83
2022-07-30T03:06:10.148Z,25.60
2022-07-30T03:08:37.375Z,25.68
2022-07-30T03:11:05.590Z,25.44
2022-07-30T03:13:32.235Z,25.48
2022-07-30T03:15:59.516Z,25.87
2022-07-30T03:18:32.850Z,25.78
2022-07-30T03:21:00.685Z,25.87
2022-07-30T03:23:28.238Z,25.64
2022-07-30T03:25:58.069Z,26.00
2022-07-30T03:28:25.614Z,25.75
2022-07-30T03:30:54.077Z,25.69
2022-07-30T03:33:22.164Z,25.53
2022-07-30T03:35:49.769Z,25.40
2022-07-30T03:38:17.604Z,25.23
2022-07-30T03:40:45.517Z,25.29
2022-07-30T03:43:32.108Z,25.21
2022-07-30T03:46:02.827Z,25.14
2022-07-30T03:48:30.345Z,25.39
2022-07-30T03:50:57.570Z,25.47
2022-07-30T03:53:25.247Z,25.51
2022-07-30T03:55:52.990Z,25.66
2022-07-30T03:58:19.683Z,25.42
2022-07-30T04:00:50.646Z,25.48
2022-07-30T04:03:27.659Z,25.43
2022-07-30T04:05:54.758Z,25.73
2022-07-30T04:08:21.474Z,25.49
2022-07-30T04:10:48.995Z,25.48
2022-07-30T04:13:15.884Z,25.72
2022-07-30T04:16:38.922Z,25.72
2022-07-30T04:18:56.191Z,25.92
2022-07-30T04:21:25.461Z,25.90
2022-07-30T04:24:03.639Z,26.13
2022-07-30T04:26:33.257Z,26.08
2022-07-30T04:29:01.645Z,26.15
2022-07-30T04:31:28.979Z,26.04
2022-07-30T04:33:55.625Z,26.11
2022-07-30T04:36:33.430Z,26.03
2022-07-30T04:39:00.483Z,26.20
2022-07-30T04:41:27.299Z,26.12
2022-07-30T04:43:53.905Z,25.99
2022-07-30T04:46:20.611Z,25.96
2022-07-30T04:48:51.889Z,25.69
2022-07-30T04:51:25.468Z,25.91
2022-07-30T04:53:54.814Z,26.00
2022-07-30T04:56:22.775Z,26.04
2022-07-30T04:58:50.609Z,26.23
2022-07-30T05:01:23.269Z,25.89
2022-07-30T05:04:02.340Z,26.09
2022-07-30T05:06:30.425Z,25.76
2022-07-30T05:08:57.845Z,25.46
2022-07-30T05:11:24.595Z,25.68
2022-07-30T05:13:51.246Z,25.75
2022-07-30T05:16:17.933Z,25.97
2022-07-30T05:18:45.408Z,25.75
2022-07-30T05:21:11.932Z,26.23
2022-07-30T05:23:38.471Z,26.29
2022-07-30T05:26:05.108Z,25.97
2022-07-30T05:28:31.833Z,26.20
2022-07-30T05:30:59.114Z,26.06
2022-07-30T05:33:41.375Z,26.06
2022-07-30T05:36:09.508Z,26.04
2022-07-30T05:38:36.130Z,26.07
2022-07-30T05:41:02.872Z,26.13
2022-07-30T05:43:29.439Z,26.34
2022-07-30T05:45:57.415Z,26.31
2022-07-30T05:48:24.012Z,26.30
2022-07-30T05:50:50.548Z,26.51
2022-07-30T05:53:17.073Z,27.04
2022-07-30T05:55:43.632Z,28.24
2022-07-30T05:58:10.183Z,29.37
2022-07-30T06:00:36.705Z,29.28
2022-07-30T06:03:03.643Z,30.01
2022-07-30T06:05:32.504Z,29.81
2022-07-30T06:07:59.035Z,29.58
2022-07-30T06:10:25.607Z,29.94
2022-07-30T06:12:52.154Z,30.46
2022-07-30T06:15:25.800Z,30.93
2022-07-30T06:17:57.187Z,31.13
2022-07-30T06:20:28.490Z,30.99
2022-07-30T06:22:55.077Z,31.15
2022-07-30T06:25:21.669Z,30.23
2022-07-30T06:27:48.148Z,29.32
2022-07-30T06:30:14.802Z,28.81
2022-07-30T06:32:43.648Z,28.70
2022-07-30T06:35:10.317Z,28.90
2022-07-30T06:37:58.778Z,28.85
2022-07-30T06:40:23.460Z,28.77
2022-07-30T06:42:50.031Z,29.17
2022-07-30T06:45:16.844Z,29.97
2022-07-30T06:47:43.409Z,30.93
2022-07-30T06:50:10.037Z,31.32
2022-07-30T06:52:38.421Z,30.56
2022-07-30T06:55:05.402Z,30.23
2022-07-30T06:57:32.076Z,30.23
2022-07-30T07:00:05.960Z,30.61
2022-07-30T07:02:32.485Z,30.08
2022-07-30T07:04:59.015Z,29.82
2022-07-30T07:07:40.767Z,29.79
2022-07-30T07:10:09.188Z,30.09
2022-07-30T07:12:35.755Z,29.86
2022-07-30T07:15:02.466Z,30.12
2022-07-30T07:17:28.992Z,29.95
2022-07-30T07:19:59.829Z,29.90
2022-07-30T07:22:28.420Z,30.30
2022-07-30T07:24:54.933Z,30.56
2022-07-30T07:27:21.688Z,30.22
2022-07-30T07:30:01.891Z,30.83
2022-07-30T07:32:33.663Z,30.07
2022-07-30T07:35:00.239Z,30.06
2022-07-30T07:37:27.070Z,30.44
2022-07-30T07:39:53.751Z,30.78
2022-07-30T07:42:20.340Z,30.39
2022-07-30T07:44:46.839Z,30.47
2022-07-30T07:47:13.342Z,30.64
2022-07-30T07:49:40.017Z,30.92
2022-07-30T07:52:06.535Z,30.51
2022-07-30T07:54:33.416Z,30.42
2022-07-30T07:57:03.150Z,30.85
2022-07-30T07:59:36.134Z,31.16
2022-07-30T08:02:08.051Z,31.14
2022-07-30T08:04:35.340Z,31.07
2022-07-30T08:07:02.331Z,31.05
2022-07-30T08:09:40.743Z,30.95
2022-07-30T08:12:11.696Z,30.58
2022-07-30T08:14:38.234Z,30.59
2022-07-30T08:17:05.151Z,30.64
2022-07-30T08:19:32.210Z,31.18
2022-07-30T08:21:59.746Z,31.17
2022-07-30T08:24:27.032Z,31.20
2022-07-30T08:26:53.881Z,31.37
2022-07-30T08:29:20.456Z,31.66
2022-07-30T08:31:47.036Z,31.80
2022-07-30T08:34:13.756Z,31.36
2022-07-30T08:36:40.812Z,31.46
2022-07-30T08:39:07.402Z,31.65
2022-07-30T08:41:36.343Z,31.57
2022-07-30T08:44:03.783Z,31.27
2022-07-30T08:46:32.171Z,31.70
2022-07-30T08:49:07.722Z,31.73
2022-07-30T08:51:37.701Z,31.83
2022-07-30T08:54:05.139Z,32.33
2022-07-30T08:56:33.382Z,32.38
2022-07-30T08:59:00.879Z,31.83
2022-07-30T09:01:27.735Z,32.35
2022-07-30T09:03:54.377Z,32.28
2022-07-30T09:06:20.930Z,32.10
2022-07-30T09:08:47.537Z,32.46
2022-07-30T09:11:14.195Z,32.39
2022-07-30T09:13:42.374Z,32.46
2022-07-30T09:16:22.429Z,32.62
2022-07-30T09:18:50.496Z,32.86
2022-07-30T09:21:28.436Z,33.03
2022-07-30T09:24:00.731Z,32.89
2022-07-30T09:26:27.506Z,32.33
2022-07-30T09:28:54.134Z,32.82
2022-07-30T09:31:21.817Z,33.14
2022-07-30T09:33:48.510Z,32.70
2022-07-30T09:36:17.691Z,32.87
2022-07-30T09:38:49.784Z,33.24
2022-07-30T09:41:37.843Z,33.05
2022-07-30T09:44:06.310Z,33.36
2022-07-30T09:46:51.588Z,33.45
2022-07-30T09:49:20.772Z,32.99
2022-07-30T09:51:56.101Z,32.96
2022-07-30T09:54:42.524Z,33.17
2022-07-30T09:57:26.047Z,32.60
2022-07-30T09:59:56.063Z,32.54
2022-07-30T10:02:33.348Z,32.76
2022-07-30T10:05:14.095Z,32.57
2022-07-30T10:07:58.506Z,32.71
2022-07-30T10:10:31.081Z,32.74
2022-07-30T10:13:04.756Z,31.82
2022-07-30T10:15:34.686Z,32.26
2022-07-30T10:18:06.371Z,32.12
2022-07-30T10:20:33.817Z,32.27
2022-07-30T10:23:08.298Z,32.17
2022-07-30T10:25:49.228Z,32.23
2022-07-30T10:28:22.554Z,32.56
2022-07-30T10:30:51.816Z,32.26
2022-07-30T10:33:34.670Z,32.15
2022-07-30T10:36:03.790Z,31.89
2022-07-30T10:38:34.306Z,31.98
2022-07-30T10:41:16.725Z,31.96
2022-07-30T10:43:57.926Z,31.63
2022-07-30T10:46:46.231Z,32.00
2022-07-30T10:49:19.168Z,31.78
2022-07-30T10:51:55.486Z,32.02
2022-07-30T10:54:44.675Z,31.68
2022-07-30T10:57:23.060Z,31.49
2022-07-30T11:00:04.139Z,31.48
2022-07-30T11:02:34.914Z,31.52
2022-07-30T11:05:32.060Z,31.57
2022-07-30T11:08:37.920Z,31.33
2022-07-30T11:11:59.449Z,31.55
2022-07-30T11:14:08.538Z,31.79
2022-07-30T11:16:35.164Z,31.67
2022-07-30T11:19:56.203Z,31.32
2022-07-30T11:22:27.221Z,31.33
2022-07-30T11:24:54.428Z,31.26
2022-07-30T11:27:41.918Z,31.53
2022-07-30T11:30:18.426Z,31.54
2022-07-30T11:32:45.604Z,31.57
2022-07-30T11:35:15.111Z,31.36
2022-07-30T11:38:19.629Z,31.32
2022-07-30T11:40:48.782Z,31.20
2022-07-30T11:43:19.421Z,31.48
2022-07-30T11:46:10.497Z,31.53
2022-07-30T11:48:39.671Z,31.53
2022-07-30T11:51:06.790Z,31.35
2022-07-30T11:53:33.371Z,31.45
2022-07-30T11:56:02.342Z,31.47
2022-07-30T11:58:39.767Z,31.58
2022-07-30T12:01:11.903Z,31.68
2022-07-30T12:03:45.667Z,31.53
2022-07-30T12:06:19.615Z,31.72
2022-07-30T12:08:48.418Z,31.52
2022-07-30T12:11:15.653Z,31.72
2022-07-30T12:13:46.178Z,31.60
2022-07-30T12:16:17.635Z,31.55
2022-07-30T12:18:45.138Z,31.52
2022-07-30T12:21:12.816Z,31.31
2022-07-30T12:23:39.724Z,31.20
2022-07-30T12:26:06.429Z,31.67
2022-07-30T12:28:34.829Z,31.33
2022-07-30T12:31:04.394Z,31.31
2022-07-30T12:33:31.512Z,31.32
2022-07-30T12:36:00.342Z,31.59
2022-07-30T12:38:28.291Z,31.60
2022-07-30T12:41:03.983Z,31.24
2022-07-30T12:43:51.950Z,31.35
2022-07-30T12:46:19.975Z,31.57
2022-07-30T12:49:02.098Z,31.58
2022-07-30T12:51:59.773Z,31.56
2022-07-30T12:54:27.852Z,31.36
2022-07-30T12:57:03.565Z,31.23
2022-07-30T12:59:31.477Z,31.27
2022-07-30T13:02:00.397Z,31.60
2022-07-30T13:04:27.700Z,31.32
2022-07-30T13:07:11.389Z,31.44
2022-07-30T13:09:39.896Z,31.54
2022-07-30T13:12:07.090Z,31.40
2022-07-30T13:14:33.704Z,31.56
2022-07-30T13:17:01.105Z,31.98
2022-07-30T13:19:28.210Z,31.70
2022-07-30T13:21:54.755Z,31.76
2022-07-30T13:24:21.847Z,31.36
2022-07-30T13:26:50.590Z,31.37
2022-07-30T13:29:17.847Z,31.58
2022-07-30T13:31:44.353Z,31.60
2022-07-30T13:34:12.156Z,31.64
2022-07-30T13:36:39.033Z,31.55
2022-07-30T13:39:05.513Z,31.34
2022-07-30T13:41:33.225Z,31.43
2022-07-30T13:43:59.766Z,31.38
2022-07-30T13:46:27.431Z,31.47
2022-07-30T13:48:54.948Z,31.53
2022-07-30T13:51:21.707Z,31.58
2022-07-30T13:53:48.227Z,31.60
2022-07-30T13:56:14.746Z,31.56
2022-07-30T13:58:42.582Z,31.44
2022-07-30T14:01:10.153Z,31.59
2022-07-30T14:03:49.373Z,31.72
2022-07-30T14:06:18.031Z,31.76
2022-07-30T14:08:44.569Z,31.80
2022-07-30T14:11:11.062Z,31.83
2022-07-30T14:13:38.016Z,31.60
2022-07-30T14:16:08.197Z,31.88
2022-07-30T14:18:44.755Z,31.73
2022-07-30T14:21:11.334Z,31.68
2022-07-30T14:23:37.912Z,31.71
2022-07-30T14:26:04.630Z,31.89
2022-07-30T14:28:31.154Z,31.59
2022-07-30T14:30:57.701Z,31.63
2022-07-30T14:33:24.242Z,31.61
2022-07-30T14:35:50.741Z,31.61
2022-07-30T14:38:17.261Z,31.45
2022-07-30T14:40:43.777Z,31.43
2022-07-30T14:43:10.228Z,31.55
2022-07-30T14:45:36.858Z,31.61
2022-07-30T14:48:03.559Z,31.42
2022-07-30T14:50:30.715Z,31.66
2022-07-30T14:52:57.196Z,31.77
2022-07-30T14:55:23.833Z,31.95
2022-07-30T14:57:50.323Z,31.85
2022-07-30T15:00:17.164Z,32.02
2022-07-30T15:02:44.176Z,32.04
2022-07-30T15:05:10.791Z,31.86
2022-07-30T15:07:37.444Z,31.68
2022-07-30T15:10:07.524Z,31.83
2022-07-30T15:12:34.117Z,31.72
2022-07-30T15:15:00.750Z,31.73
2022-07-30T15:17:28.419Z,31.70
2022-07-30T15:19:54.956Z,31.80
2022-07-30T15:22:21.643Z,31.76
2022-07-30T15:24:48.818Z,31.81
2022-07-30T15:27:15.468Z,31.76
2022-07-30T15:29:41.986Z,31.75
2022-07-30T15:32:08.514Z,31.74
2022-07-30T15:34:35.085Z,31.71
2022-07-30T15:37:02.917Z,31.96
2022-07-30T15:39:32.305Z,31.70
2022-07-30T15:42:00.885Z,31.74
2022-07-30T15:44:27.738Z,31.93
2022-07-30T15:46:54.970Z,31.71
2022-07-30T15:49:21.549Z,31.90
2022-07-30T15:51:51.843Z,31.79
2022-07-30T15:54:22.529Z,31.91
2022-07-30T15:56:50.556Z,31.80
2022-07-30T15:59:17.112Z,31.92
2022-07-30T16:01:44.095Z,31.85
2022-07-30T16:04:18.984Z,31.71
2022-07-30T16:06:46.429Z,31.80
2022-07-30T16:09:13.665Z,31.80
2022-07-30T16:11:41.579Z,31.68
2022-07-30T16:14:09.266Z,31.62
2022-07-30T16:16:35.829Z,31.67
2022-07-30T16:19:02.511Z,31.82
2022-07-30T16:21:29.011Z,31.88
2022-07-30T16:23:56.601Z,31.86
2022-07-30T16:26:23.183Z,31.56
2022-07-30T16:28:49.907Z,31.60
2022-07-30T16:31:17.167Z,31.57
2022-07-30T16:33:43.867Z,31.49
2022-07-30T16:36:11.078Z,31.47
2022-07-30T16:38:37.603Z,31.48
2022-07-30T16:41:04.166Z,31.51
2022-07-30T16:43:31.969Z,31.67
2022-07-30T16:45:59.461Z,31.59
2022-07-30T16:48:26.455Z,31.61
2022-07-30T16:50:53.299Z,31.56
2022-07-30T16:53:20.097Z,31.39
2022-07-30T16:55:47.118Z,31.50
2022-07-30T16:58:13.649Z,31.63
2022-07-30T17:00:40.441Z,31.67
2022-07-30T17:03:07.323Z,31.78
2022-07-30T17:05:34.260Z,31.74
2022-07-30T17:08:01.011Z,31.52
2022-07-30T17:10:27.891Z,31.48
2022-07-30T17:12:57.208Z,31.43
2022-07-30T17:15:32.115Z,31.35
2022-07-30T17:18:00.652Z,31.53
2022-07-30T17:20:27.798Z,31.54
2022-07-30T17:22:56.076Z,31.61
2022-07-30T17:25:27.520Z,31.70
2022-07-30T17:27:58.783Z,31.62
2022-07-30T17:30:26.886Z,31.52
2022-07-30T17:32:53.550Z,31.49
2022-07-30T17:35:20.524Z,31.49
2022-07-30T17:37:47.074Z,31.56
2022-07-30T17:40:28.416Z,31.51
2022-07-30T17:43:02.994Z,31.53
2022-07-30T17:45:30.724Z,31.66
2022-07-30T17:47:57.930Z,31.64
2022-07-30T17:50:24.527Z,31.49
2022-07-30T17:52:51.200Z,31.48
2022-07-30T17:55:17.735Z,31.27
2022-07-30T17:57:44.223Z,31.32
2022-07-30T18:00:11.763Z,31.37
2022-07-30T18:02:38.311Z,31.18
2022-07-30T18:05:05.286Z,31.05
2022-07-30T18:07:31.833Z,31.00
2022-07-30T18:09:58.370Z,31.05
2022-07-30T18:12:24.960Z,31.17
2022-07-30T18:14:52.018Z,31.13
2022-07-30T18:17:18.588Z,30.99
2022-07-30T18:19:45.277Z,30.80
2022-07-30T18:22:14.698Z,30.82
2022-07-30T18:24:43.757Z,30.77
2022-07-30T18:27:11.975Z,30.59
2022-07-30T18:29:38.853Z,30.72
2022-07-30T18:32:06.171Z,30.54
2022-07-30T18:34:33.149Z,30.48
2022-07-30T18:36:59.912Z,30.45
2022-07-30T18:39:26.594Z,30.58
2022-07-30T18:41:53.131Z,30.27
2022-07-30T18:44:19.804Z,30.35
2022-07-30T18:46:46.380Z,30.36
2022-07-30T18:49:35.108Z,30.32
2022-07-30T18:52:01.353Z,30.21
2022-07-30T18:54:29.408Z,30.29
2022-07-30T18:56:56.354Z,30.17
2022-07-30T18:59:23.204Z,30.17
2022-07-30T19:01:49.936Z,30.17
2022-07-30T19:04:16.483Z,30.14
2022-07-30T19:06:43.192Z,30.15
2022-07-30T19:09:17.019Z,30.11
2022-07-30T19:11:45.103Z,30.22
2022-07-30T19:14:13.156Z,29.83
2022-07-30T19:16:40.878Z,29.67
2022-07-30T19:19:07.852Z,29.81
2022-07-30T19:21:34.753Z,29.73
2022-07-30T19:24:01.798Z,29.66
2022-07-30T19:26:28.577Z,29.59
2022-07-30T19:28:55.270Z,29.61
2022-07-30T19:31:22.030Z,29.40
2022-07-30T19:33:49.304Z,29.26
2022-07-30T19:36:18.985Z,29.27
2022-07-30T19:38:45.577Z,29.24
2022-07-30T19:41:12.248Z,29.21
2022-07-30T19:43:41.023Z,29.13
2022-07-30T19:46:08.027Z,29.03
2022-07-30T19:48:37.306Z,28.89
2022-07-30T19:51:05.470Z,28.94
2022-07-30T19:53:42.720Z,29.11
2022-07-30T19:56:11.474Z,28.95
2022-07-30T19:58:38.225Z,28.78
2022-07-30T20:01:08.315Z,29.00
2022-07-30T20:03:35.664Z,28.91
2022-07-30T20:06:02.302Z,28.78
2022-07-30T20:08:29.590Z,28.90
2022-07-30T20:10:57.880Z,28.56
2022-07-30T20:13:45.370Z,28.64
2022-07-30T20:16:13.090Z,28.53
2022-07-30T20:18:40.314Z,28.33
2022-07-30T20:21:14.028Z,28.35
2022-07-30T20:23:41.600Z,28.33
2022-07-30T20:26:12.547Z,28.34
2022-07-30T20:28:40.611Z,28.38
2022-07-30T20:31:07.224Z,28.29
2022-07-30T20:33:36.154Z,28.28
2022-07-30T20:36:05.031Z,28.37
2022-07-30T20:38:33.766Z,28.32
2022-07-30T20:41:02.255Z,28.26
2022-07-30T20:43:29.168Z,28.15
2022-07-30T20:45:56.041Z,28.11
2022-07-30T20:51:11.834Z,27.94
2022-07-30T20:53:38.388Z,28.57
2022-07-30T20:56:05.062Z,28.08
2022-07-30T20:58:31.602Z,27.84
2022-07-30T21:01:00.121Z,27.77
2022-07-30T21:03:27.139Z,28.00
2022-07-30T21:05:56.285Z,27.81
2022-07-30T21:08:25.068Z,27.50
2022-07-30T21:10:53.136Z,27.52
2022-07-30T21:13:22.308Z,27.51
2022-07-30T21:16:02.443Z,27.61
2022-07-30T21:18:38.044Z,27.63
2022-07-30T21:21:06.880Z,27.51
2022-07-30T21:23:33.578Z,27.58
2022-07-30T21:26:04.780Z,27.60
2022-07-30T21:28:35.379Z,27.57
2022-07-30T21:31:03.899Z,27.75
2022-07-30T21:33:34.841Z,27.67
2022-07-30T21:36:01.396Z,27.52
2022-07-30T21:38:28.632Z,27.76
2022-07-30T21:40:57.064Z,27.41
2022-07-30T21:43:29.357Z,27.13
2022-07-30T21:48:43.967Z,27.25
2022-07-30T21:51:11.577Z,26.97
2022-07-30T21:53:44.935Z,26.91
2022-07-30T21:56:13.525Z,27.08
2022-07-30T21:58:41.168Z,26.89
2022-07-30T22:01:17.177Z,26.83
2022-07-30T22:06:40.054Z,26.94
2022-07-30T22:09:26.401Z,26.91
2022-07-30T22:12:01.237Z,26.85
2022-07-30T22:14:29.090Z,26.88
2022-07-30T22:16:55.941Z,26.78
2022-07-30T22:19:22.891Z,26.85
2022-07-30T22:24:37.247Z,26.76
2022-07-30T22:27:14.401Z,26.89
2022-07-30T22:29:43.115Z,26.92
2022-07-30T22:32:10.698Z,26.90
2022-07-30T22:34:37.604Z,26.86
2022-07-30T22:37:04.139Z,26.93
2022-07-30T22:39:32.181Z,26.85
2022-07-30T22:42:17.534Z,26.68
2022-07-30T22:44:45.931Z,26.82
2022-07-30T22:47:18.835Z,27.39
2022-07-30T22:49:56.132Z,27.32
2022-07-30T22:52:29.732Z,27.13
2022-07-30T22:55:08.466Z,27.06
2022-07-30T22:57:37.943Z,26.73
2022-07-30T23:00:11.977Z,26.83
2022-07-30T23:02:40.292Z,26.71
2022-07-30T23:05:08.651Z,26.69
2022-07-30T23:07:39.729Z,26.65
2022-07-30T23:10:17.469Z,26.54
2022-07-30T23:12:19.612Z,28.09
2022-07-30T23:12:28.645Z,26.77
2022-07-30T23:12:31.101Z,27.16
2022-07-30T23:12:31.417Z,27.02
2022-07-30T23:12:47.942Z,26.59
2022-07-30T23:15:15.038Z,26.62
2022-07-30T23:17:41.630Z,26.54
2022-07-30T23:20:11.241Z,26.60
2022-07-30T23:22:37.872Z,26.57
2022-07-30T23:25:07.153Z,26.56
2022-07-30T23:27:34.305Z,26.64
2022-07-30T23:30:00.831Z,26.62
2022-07-30T23:32:27.462Z,26.56
2022-07-30T23:34:54.031Z,26.58
2022-07-30T23:37:20.579Z,26.60
2022-07-30T23:39:47.101Z,26.56
2022-07-30T23:42:13.700Z,26.54
2022-07-30T23:44:40.268Z,26.51
2022-07-30T23:47:07.144Z,26.45
2022-07-30T23:49:33.702Z,26.49
2022-07-30T23:52:00.270Z,26.43
2022-07-30T23:54:28.802Z,26.35
2022-07-30T23:56:56.238Z,26.43
2022-07-30T23:59:36.935Z,26.48
